Latest Weather Observations for Falls Creek

IDV60801

Issued at 8:05 am EST Thursday 2 October 2014 (issued every 30 minutes, with the page automatically refreshed every 10 minutes)

About weather observations | Map of weather stations | Latest weather observations for VIC | Other Formats
Station Details ID: 083084 Name: FALLS CREEK Lat: -36.87 Lon: 147.28 Height: 1765.0 m
Data from the previous 72 hours. | See also: Recent months at Falls Creek
Date/Time
EST
Temp
°C
App
Temp
°C
Dew
Point
Rel
Hum
%
Delta-T
°C
Wind Press
QNH
hPa
Press
MSL
hPa
Rain
since 9 am
mm
Dir
 
Spd
km/h
Gust
km/h
Spd
kts
Gust
kts
02/08:00am 6.7 1.4 -0.3 61 3.0 WSW 17 28 9 15 1022.1 1020.3 0.0
02/07:30am 6.1 -0.5 -0.6 62 2.9 WSW 24 33 13 18 1021.9 1020.0 0.0
02/07:00am 4.8 -1.0 -1.6 63 2.6 W 19 24 10 13 1021.7 1019.8 0.0
02/06:30am 4.6 -0.4 -1.4 65 2.5 SW 15 22 8 12 1021.4 1019.5 0.0
02/06:00am 3.6 -2.4 -1.5 69 2.1 SSW 20 26 11 14 1021.2 1019.3 0.0
02/05:30am 3.4 -3.8 -1.9 68 2.1 SW 26 30 14 16 1020.9 1019.0 0.0
02/05:00am 3.2 -4.9 -2.9 64 2.4 SW 30 35 16 19 1020.7 1018.8 0.0
02/04:30am 3.1 -5.9 -2.6 66 2.2 SW 35 43 19 23 1020.3 1018.4 0.0
02/04:00am 1.9 -5.5 -1.0 81 1.2 SSW 28 35 15 19 1020.5 1018.5 0.0
02/03:30am 1.5 -6.4 -1.4 81 1.2 SSW 30 35 16 19 1020.5 1018.5 0.0
02/03:00am 1.2 -5.2 -1.9 80 1.3 SSW 22 28 12 15 1020.6 1018.7 0.0
02/02:30am 0.5 -5.7 -3.1 77 1.4 S 20 26 11 14 1020.8 1018.9 0.0
02/02:00am -0.2 -5.2 -4.3 74 1.5 S 13 19 7 10 1021.1 1019.2 0.0
02/01:30am -0.7 -5.4 -5.1 72 1.5 S 11 15 6 8 1021.3 1019.4 0.0
02/01:00am -0.9 -6.4 -5.1 73 1.4 S 15 19 8 10 1021.3 1019.4 0.0
02/12:30am -0.5 -6.3 -4.9 72 1.6 S 17 20 9 11 1021.4 1019.5 0.0
02/12:00am -1.3 -6.8 -5.1 75 1.3 SSW 15 20 8 11 1021.5 1019.6 0.0
 
Date/Time
EST
Temp
°C
App
Temp
°C
Dew
Point
Rel
Hum
%
Delta-T
°C
Wind Press
QNH
hPa
Press
MSL
hPa
Rain
since 9 am
mm
Dir
 
Spd
km/h
Gust
km/h
Spd
kts
Gust
kts
01/11:30pm -0.9 -6.0 -4.8 75 1.4 SSW 13 19 7 10 1021.7 1019.8 0.0
01/11:00pm -1.8 -5.7 -4.3 83 0.8 S 7 11 4 6 1021.9 1020.0 0.0
01/10:30pm -1.7 -5.6 -4.2 83 0.8 WSW 7 11 4 6 1022.1 1020.3 0.0
01/10:00pm -1.7 -5.9 -3.6 87 0.6 W 9 11 5 6 1022.0 1020.1 0.0
01/09:30pm -1.3 -6.3 -4.1 81 1.0 WSW 13 17 7 9 1022.1 1020.3 0.0
01/09:00pm -1.4 -5.6 -3.7 84 0.8 W 9 11 5 6 1022.1 1020.3 0.0
01/08:30pm -1.4 -5.0 -3.7 84 0.8 SW 6 9 3 5 1022.1 1020.3 0.0
01/08:00pm -1.1 -6.8 -3.8 82 0.9 WSW 17 20 9 11 1021.8 1019.9 0.0
01/07:30pm -0.8 -6.5 -3.5 82 1.0 WSW 17 20 9 11 1021.3 1019.4 0.0
01/07:00pm -0.4 -5.7 -3.3 81 1.1 WSW 15 19 8 10 1020.9 1019.0 0.0
01/06:30pm 0.2 -5.4 -3.0 79 1.2 WSW 17 19 9 10 1020.8 1018.9 0.0
01/06:00pm 1.0 -3.5 -3.3 73 1.7 WSW 11 17 6 9 1020.9 1019.0 0.0
01/05:30pm 2.4 -2.5 -3.1 67 2.1 WSW 13 20 7 11 1020.8 1018.9 0.0
01/05:00pm 3.4 -1.5 -3.6 60 2.7 WSW 13 20 7 11 1020.6 1018.7 0.0
01/04:30pm 4.3 0.2 -3.4 57 3.0 WNW 9 19 5 10 1020.3 1018.4 0.0
01/04:00pm 4.2 -0.4 -4.3 54 3.2 W 11 20 6 11 1020.0 1018.0 0.0
01/03:30pm 3.5 -1.3 -5.9 50 3.4 SW 11 20 6 11 1019.6 1017.7 0.0
01/03:00pm 3.2 -1.4 -4.0 59 2.7 SW 11 24 6 13 1019.9 1017.9 0.0
01/02:30pm 2.9 -1.9 -5.7 53 3.3 SSW 11 19 6 10 1019.6 1017.7 0.0
01/02:00pm 3.7 -1.3 -4.5 55 3.1 SW 13 22 7 12 1019.8 1017.8 0.0
01/01:30pm 3.6 -1.2 -5.6 51 3.4 SSW 11 20 6 11 1019.6 1017.7 0.0
01/01:00pm 3.0 -2.0 -4.7 57 2.9 WSW 13 22 7 12 1019.5 1017.5 0.0
01/12:30pm 2.4 -3.9 -5.5 56 3.0 SSW 19 26 10 14 1019.6 1017.7 0.0
01/12:00pm 2.0 -5.3 -6.6 53 3.1 SW 24 44 13 24 1019.5 1017.5 0.0
01/11:40am 1.5 -7.0 -7.0 53 3.0 SSW 30 48 16 26 1019.3 1017.3 0.0
01/11:30am 0.9 -8.2 -7.6 53 2.9 SSW 33 44 18 24 1019.3 1017.3 0.0
01/11:00am 0.3 -8.8 -6.8 59 2.5 SSW 33 43 18 23 1019.2 1017.2 0.0
01/10:47am 0.0 -9.5 -7.5 57 2.5 SSW 35 54 19 29 1018.9 1016.9 0.0
01/10:30am -0.4 -9.9 -7.4 59 2.3 SSW 35 50 19 27 1018.7 1016.7 0.0
01/10:12am -0.9 -9.5 -8.1 58 2.3 SSW 30 50 16 27 1018.7 1016.7 0.0
01/10:00am -0.9 -9.4 -6.8 64 2.0 SSW 30 41 16 22 1018.7 1016.7 0.0
01/09:30am -1.6 -10.4 -6.5 69 1.6 SSW 32 43 17 23 1018.2 1018.6 0.0
01/09:00am -2.5 -12.3 -6.8 72 1.3 SSW 37 50 20 27 1017.4 1017.8 4.0
01/08:32am -3.0 -14.5 -6.4 77 1.0 SSW 46 65 25 35 1016.8 1017.1 4.0
01/08:30am -2.9 -14.8 -6.4 77 1.0 SSW 48 65 26 35 1016.7 1017.0 4.0
01/08:19am -3.0 -14.5 -6.8 75 1.1 SSW 46 65 25 35 1015.9 1016.3 4.0
01/08:00am -3.4 -13.6 -6.7 78 0.9 SSW 39 50 21 27 1015.8 1016.2 4.0
01/07:30am -3.8 -13.6 -6.3 83 0.7 SSW 37 44 20 24 1015.4 1015.7 4.0
01/07:00am -3.9 -14.8 -5.9 86 0.5 SW 43 54 23 29 1014.8 1015.0 4.0
01/06:31am -3.9 -12.7 -6.0 85 0.5 SSW 32 50 17 27 1014.5 1014.8 4.0
01/06:30am -4.0 -12.4 -6.3 84 0.6 SSW 30 44 16 24 1014.4 1014.7 4.0
01/06:00am -4.3 -12.0 -6.6 84 0.6 SW 26 37 14 20 1014.0 1014.3 4.0
01/05:30am -4.7 -12.8 -7.1 83 0.6 SW 28 41 15 22 1013.6 1013.8 4.0
01/05:00am -4.5 -12.6 -7.1 82 0.6 SSW 28 44 15 24 1013.0 1013.2 4.0
01/04:30am -4.4 -12.1 -6.5 85 0.5 SW 26 39 14 21 1012.4 1012.6 4.0
01/04:00am -4.2 -11.8 -6.0 87 0.4 SW 26 44 14 24 1012.0 1012.2 4.0
01/03:30am -4.2 -13.6 -6.8 82 0.7 SW 35 54 19 29 1011.3 1011.4 4.0
01/03:01am -4.2 -14.0 -6.5 84 0.6 WSW 37 56 20 30 1011.2 1011.3 4.0
01/03:00am -4.2 -14.4 -6.5 84 0.6 WSW 39 56 21 30 1011.1 1011.2 4.0
01/02:30am -4.2 -13.6 -6.3 85 0.5 W 35 59 19 32 1010.7 1010.8 4.0
01/02:00am -4.1 -12.5 -6.2 85 0.5 W 30 48 16 26 1010.5 1010.6 4.0
01/01:30am -4.2 -16.1 -6.6 83 0.6 W 48 69 26 37 1010.2 1010.3 4.0
01/01:11am -4.2 -13.6 -6.2 86 0.5 W 35 61 19 33 1010.1 1010.2 4.0
01/01:00am -4.1 -13.1 -6.4 84 0.6 W 33 50 18 27 1010.2 1010.3 4.0
01/12:36am -4.2 -12.2 -6.0 87 0.4 W 28 50 15 27 1010.2 1010.3 4.0
01/12:30am -4.2 -12.2 -5.9 88 0.4 W 28 41 15 22 1010.4 1010.5 4.0
01/12:00am -3.6 -11.7 -7.2 76 1.0 W 28 43 15 23 1010.4 1010.5 4.0
 
Date/Time
EST
Temp
°C
App
Temp
°C
Dew
Point
Rel
Hum
%
Delta-T
°C
Wind Press
QNH
hPa
Press
MSL
hPa
Rain
since 9 am
mm
Dir
 
Spd
km/h
Gust
km/h
Spd
kts
Gust
kts
30/11:30pm -3.3 -12.1 -5.9 82 0.7 W 32 43 17 23 1010.6 1010.7 4.0
30/11:00pm -2.8 -13.8 -6.8 74 1.2 W 43 72 23 39 1010.0 1010.1 4.0
30/10:33pm -2.8 -13.8 -5.6 81 0.8 WSW 44 63 24 34 1009.6 1009.7 4.0
30/10:30pm -2.8 -14.2 -5.8 80 0.9 WSW 46 61 25 33 1009.8 1009.8 4.0
30/10:00pm -2.3 -13.3 -5.1 81 0.9 WSW 44 65 24 35 1009.5 1009.6 4.0
30/09:30pm -1.8 -14.6 -4.5 82 0.9 WSW 54 72 29 39 1009.0 1009.1 4.0
30/09:06pm -1.1 -16.2 -2.8 88 0.6 W 67 85 36 46 1008.8 1008.8 3.8
30/09:05pm -1.0 -16.5 -2.7 88 0.6 WSW 69 85 37 46 1008.7 1008.7 3.8
30/09:00pm -0.4 -11.0 -1.8 90 0.5 W 44 69 24 37 1008.9 1009.0 3.6
30/08:30pm 0.4 -12.3 -0.4 94 0.3 W 56 76 30 41 1009.0 1009.1 3.4
30/08:17pm 1.8 -11.7 0.5 91 0.5 W 61 87 33 47 1009.0 1009.1 3.2
30/08:00pm 3.6 -5.8 2.3 91 0.6 WNW 41 65 22 35 1008.8 1008.8 3.0
30/07:45pm 4.9 -4.1 2.3 83 1.2 WNW 39 57 21 31 1008.5 1008.5 3.0
30/07:30pm 5.6 -7.7 1.5 75 1.8 NNW 61 95 33 51 1007.3 1007.2 3.0
30/07:23pm 5.8 -6.8 1.3 73 2.0 NW 57 95 31 51 1006.9 1006.9 3.0
30/07:00pm 5.9 -3.9 2.0 76 1.8 NNW 43 76 23 41 1008.0 1008.0 3.0
30/06:30pm 6.2 -4.8 3.0 80 1.5 NW 50 76 27 41 1007.7 1007.7 3.0
30/06:16pm 6.2 -5.5 3.5 83 1.3 NW 54 85 29 46 1007.9 1007.9 3.0
30/06:00pm 5.4 -4.0 4.2 92 0.6 NNW 43 63 23 34 1008.1 1008.1 3.0
30/05:30pm 5.2 -3.6 3.5 89 0.8 NNW 39 67 21 36 1007.9 1007.9 1.4
30/05:00pm 6.0 -3.1 4.0 87 1.0 NNW 41 65 22 35 1007.9 1007.9 0.0
30/04:30pm 6.4 -4.5 3.4 81 1.4 NNW 50 70 27 38 1007.6 1007.6 0.0
30/04:00pm 6.5 -5.2 3.1 79 1.6 NNW 54 85 29 46 1008.5 1008.5 0.0
30/03:55pm 6.5 -4.6 2.2 74 2.0 NNW 50 85 27 46 1008.2 1008.2 0.0
30/03:30pm 6.5 -3.2 2.6 76 1.8 NNW 43 67 23 36 1009.4 1009.5 0.0
30/03:00pm 6.9 -3.6 1.4 68 2.5 NNW 46 65 25 35 1009.6 1009.7 0.0
30/02:30pm 7.2 -2.3 1.9 69 2.4 NW 41 63 22 34 1010.4 1010.5 0.0
30/02:00pm 7.4 -2.3 2.9 73 2.1 NNW 43 63 23 34 1010.4 1010.5 0.0
30/01:30pm 8.3 -0.5 3.6 72 2.3 NNW 39 61 21 33 1010.4 1010.5 0.0
30/01:00pm 8.1 -1.5 4.3 77 1.9 NNW 44 67 24 36 1010.6 1010.7 0.0
30/12:30pm 8.8 -1.3 3.8 71 2.4 NNW 46 65 25 35 1011.5 1011.7 0.0
30/12:00pm 8.4 -1.3 3.8 73 2.2 NNW 44 63 24 34 1012.0 1012.2 0.0
30/11:30am 8.0 -3.2 3.8 75 2.0 NNW 52 78 28 42 1012.0 1012.2 0.0
30/11:00am 7.6 -3.9 4.4 80 1.6 NNW 54 76 29 41 1012.3 1012.4 0.0
30/10:30am 7.3 -4.3 3.7 78 1.7 NNW 54 72 29 39 1012.1 1012.3 0.0
30/10:00am 6.9 -5.1 3.5 79 1.6 NNW 56 76 30 41 1012.3 1012.4 0.0
30/09:30am 6.7 -5.0 3.5 80 1.5 NNW 54 82 29 44 1012.5 1012.7 0.0
30/09:00am 6.1 -4.5 3.3 82 1.3 NNW 48 69 26 37 1013.0 1013.2 0.0
30/08:32am 5.8 -4.8 3.1 83 1.3 NNW 48 67 26 36 1012.9 1013.1 0.0
30/08:30am 5.8 -4.4 3.1 83 1.3 NNW 46 63 25 34 1012.9 1013.1 0.0
30/08:02am 5.5 -4.7 3.0 84 1.2 NNW 46 65 25 35 1013.5 1013.7 0.0
30/08:00am 5.5 -4.7 3.0 84 1.2 NNW 46 61 25 33 1013.3 1013.6 0.0
30/07:33am 5.2 -2.9 3.1 86 1.0 NNW 35 54 19 29 1013.5 1013.7 0.0
30/07:30am 5.3 -2.8 3.2 86 1.0 NNW 35 52 19 28 1013.5 1013.7 0.0
30/07:00am 4.5 -3.3 3.0 90 0.7 NNW 33 46 18 25 1013.6 1013.8 0.0
30/06:30am 4.0 -3.6 2.7 91 0.6 NNW 32 43 17 23 1013.7 1013.9 0.0
30/06:00am 3.9 -4.3 2.6 91 0.6 NNW 35 50 19 27 1013.6 1013.8 0.0
30/05:30am 4.1 -3.7 2.6 90 0.7 NNW 33 48 18 26 1013.7 1013.9 0.0
30/05:00am 4.3 -3.9 2.5 88 0.8 NNW 35 50 19 27 1013.6 1013.8 0.0
30/04:30am 4.5 -3.8 2.4 86 0.9 NNW 35 48 19 26 1013.6 1013.8 0.0
30/04:05am 4.5 -2.8 2.2 85 1.0 NNW 30 48 16 26 1013.7 1013.9 0.0
30/04:00am 4.5 -3.2 2.2 85 1.0 NNW 32 48 17 26 1013.7 1013.9 0.0
30/03:30am 4.7 -3.0 2.1 83 1.2 NNW 32 54 17 29 1014.0 1014.3 0.0
30/03:24am 4.9 -2.9 1.9 81 1.3 NNW 32 50 17 27 1014.0 1014.3 0.0
30/03:00am 4.6 -2.7 2.3 85 1.0 NNW 30 43 16 23 1014.4 1014.7 0.0
30/02:35am 4.5 -2.9 2.0 84 1.1 NNW 30 48 16 26 1014.8 1015.0 0.0
30/02:30am 4.8 -3.1 2.0 82 1.3 NW 33 50 18 27 1014.6 1014.9 0.0
30/02:15am 4.5 -2.9 1.9 83 1.2 NNW 30 48 16 26 1014.9 1015.2 0.0
30/02:00am 4.5 -2.9 2.0 84 1.1 NNW 30 43 16 23 1015.1 1015.4 0.0
30/01:49am 4.2 -3.5 2.2 87 0.9 NNW 32 50 17 27 1015.0 1015.3 0.0
30/01:30am 4.1 -3.6 2.3 88 0.8 NNW 32 44 17 24 1015.1 1015.4 0.0
30/01:00am 3.9 -3.9 2.6 91 0.6 NNW 33 48 18 26 1015.5 1015.8 0.0
30/12:42am 3.7 -3.4 3.3 97 0.2 NNW 30 48 16 26 1015.7 1016.0 0.0
30/12:30am 3.8 -3.9 3.5 98 0.1 NNW 33 43 18 23 1015.8 1016.2 0.0
30/12:00am 3.9 -3.6 3.5 97 0.2 NNW 32 46 17 25 1016.1 1016.4 0.0
 
Date/Time
EST
Temp
°C
App
Temp
°C
Dew
Point
Rel
Hum
%
Delta-T
°C
Wind Press
QNH
hPa
Press
MSL
hPa
Rain
since 9 am
mm
Dir
 
Spd
km/h
Gust
km/h
Spd
kts
Gust
kts
29/11:30pm 3.8 -3.4 2.9 94 0.4 NNW 30 41 16 22 1016.4 1016.8 0.0
29/11:00pm 3.7 -3.9 3.7 100 0.0 NNW 33 43 18 23 1016.7 1017.0 0.0
29/10:30pm 4.5 -2.8 4.5 100 0.0 NNW 32 41 17 22 1016.9 1017.3 0.0
29/10:00pm 5.2 -2.7 0.8 73 1.9 NNW 32 43 17 23 1017.0 1017.4 0.0
29/09:30pm 6.5 -2.1 -8.6 33 5.3 NNW 30 39 16 21 1017.1 1017.5 0.0
29/09:00pm 6.6 -2.1 -8.9 32 5.4 NNW 30 37 16 20 1017.3 1017.6 0.0
29/08:30pm 6.4 -2.2 -8.3 34 5.2 NNW 30 35 16 19 1017.6 1018.0 0.0
29/08:00pm 5.1 -1.9 1.8 79 1.5 NW 28 33 15 18 1017.6 1018.0 0.0
29/07:30pm 4.7 -1.8 4.6 99 0.0 NW 28 35 15 19 1017.4 1017.8 0.0
29/07:00pm 5.0 -1.5 4.9 99 0.0 NNW 28 39 15 21 1017.1 1017.5 0.0
29/06:30pm 5.3 -2.0 4.7 96 0.3 NNW 32 41 17 22 1016.9 1017.3 0.0
29/06:00pm 6.2 -0.7 4.5 89 0.8 NNW 30 41 16 22 1016.9 1017.3 0.0
29/05:30pm 7.3 0.0 2.6 72 2.2 NNW 30 41 16 22 1016.8 1017.1 0.0
29/05:00pm 7.9 0.7 2.8 70 2.4 NNW 30 39 16 21 1016.7 1017.0 0.0
29/04:30pm 8.3 0.5 1.9 64 3.0 NNW 32 41 17 22 1016.5 1016.9 0.0
29/04:00pm 8.9 1.0 1.1 58 3.6 N 32 44 17 24 1016.5 1016.9 0.0
29/03:30pm 9.4 1.8 2.7 63 3.2 N 32 46 17 25 1016.4 1016.8 0.0
29/03:00pm 9.5 1.6 1.2 56 3.8 N 32 43 17 23 1016.3 1016.6 0.0
29/02:30pm 9.7 1.9 1.8 58 3.7 N 32 44 17 24 1016.4 1016.8 0.0
29/02:00pm 10.1 2.5 2.7 60 3.5 N 32 44 17 24 1016.5 1016.9 0.0
29/01:30pm 10.1 2.8 2.5 59 3.6 N 30 41 16 22 1016.5 1016.9 0.0
29/01:00pm 9.9 2.3 2.7 61 3.4 N 32 46 17 25 1016.7 1017.0 0.0
29/12:30pm 9.4 1.3 1.3 57 3.7 N 33 52 18 28 1016.7 1017.0 0.0
29/12:00pm 9.2 1.4 1.4 58 3.6 N 32 50 17 27 1016.7 1017.0 0.0
29/11:59am 9.4 1.5 0.8 55 3.9 N 32 50 17 27 1016.7 1017.0 0.0
29/11:30am 9.0 0.7 -0.1 53 4.0 N 33 48 18 26 1016.7 1017.0 0.0
29/11:00am 8.4 -0.2 -0.1 55 3.8 N 35 48 19 26 1016.5 1016.9 0.0
29/10:30am 8.3 0.7 0.5 58 3.5 N 30 44 16 24 1016.4 1016.8 0.0
29/10:00am 8.3 0.9 1.9 64 3.0 N 30 44 16 24 1016.3 1016.6 0.0
29/09:30am 8.7 3.5 2.5 65 2.9 NNW 19 30 10 16 1016.4 1016.8 0.0
29/09:00am 7.1 1.7 2.2 71 2.3 NNW 20 28 11 15 1016.4 1016.8 0.0
29/08:30am 6.1 0.7 2.7 79 1.6 N 20 28 11 15 1015.9 1016.3 0.0

Other Formats:

Comma delimited format used in spreadsheet applications
http://www.bom.gov.au/fwo/IDV60801/IDV60801.94903.axf

JavaScript Object Notation format (JSON) in row-major order
http://www.bom.gov.au/fwo/IDV60801/IDV60801.94903.json